Time;durP1;ratioP1;P1;durP2;ratioP2;P2;SDS_P1;SDS_P2;PMS_P1;PMS_P2;Temp;Humidity;BMP_temperature;BMP_pressure;BME280_temperature;BME280_humidity;BME280_pressure;Samples;Min_cycle;Max_cycle;Signal;HPM_P1;HPM_P2
2023/01/26 00:01:16;;;;;;;80.10;27.17;;;-0.50;99.90;;;;;;5025060;28;20029;-75
2023/01/26 00:03:42;;;;;;;82.60;28.80;;;-0.40;99.90;;;;;;5026749;28;20080;-75
2023/01/26 00:06:12;;;;;;;84.70;28.88;;;-0.40;99.90;;;;;;5025575;28;20040;-73
2023/01/26 00:08:39;;;;;;;81.50;27.48;;;-0.40;99.90;;;;;;5025342;28;20037;-74
2023/01/26 00:11:06;;;;;;;73.45;26.48;;;-0.40;99.90;;;;;;5038890;28;20540;-74
2023/01/26 00:13:33;;;;;;;72.78;26.38;;;-0.40;99.90;;;;;;5061374;28;20044;-74
2023/01/26 00:15:59;;;;;;;68.30;24.80;;;-0.50;99.90;;;;;;5025547;28;20037;-74
2023/01/26 00:18:25;;;;;;;69.10;24.92;;;-0.40;99.90;;;;;;5023727;28;20120;-74
2023/01/26 00:20:58;;;;;;;74.07;26.23;;;-0.50;99.90;;;;;;5021657;28;20100;-72
2023/01/26 00:23:24;;;;;;;74.07;26.40;;;-0.50;99.90;;;;;;5041998;28;20033;-73
2023/01/26 00:25:50;;;;;;;72.18;25.25;;;-0.50;99.90;;;;;;5016954;28;20086;-74
2023/01/26 00:28:16;;;;;;;74.75;26.67;;;-0.50;99.90;;;;;;5021644;28;20382;-73
2023/01/26 00:30:41;;;;;;;72.78;26.63;;;-0.50;99.90;;;;;;5020502;28;20074;-74
2023/01/26 00:33:07;;;;;;;74.13;26.20;;;-0.50;99.90;;;;;;5036008;28;20055;-77
2023/01/26 00:35:33;;;;;;;69.70;26.00;;;-0.50;99.90;;;;;;5030111;28;20034;-75
2023/01/26 00:37:59;;;;;;;69.57;25.55;;;-0.50;99.90;;;;;;5006823;28;20049;-78
2023/01/26 00:40:25;;;;;;;75.25;27.55;;;-0.40;99.90;;;;;;5005635;28;20446;-73
2023/01/26 00:42:53;;;;;;;71.28;26.23;;;-0.40;99.90;;;;;;5004661;28;20040;-74
2023/01/26 00:45:20;;;;;;;70.78;25.05;;;-0.40;99.90;;;;;;5013614;28;20030;-75
2023/01/26 00:47:46;;;;;;;77.60;27.83;;;-0.40;99.90;;;;;;5016277;28;20091;-74
2023/01/26 00:50:12;;;;;;;73.05;27.50;;;-0.40;99.90;;;;;;5033683;28;20029;-74
2023/01/26 00:52:38;;;;;;;77.18;27.40;;;-0.50;99.90;;;;;;5021330;28;20557;-74
2023/01/26 00:55:04;;;;;;;71.38;26.40;;;-0.40;99.90;;;;;;5022404;28;20033;-76
2023/01/26 00:57:30;;;;;;;77.45;25.98;;;-0.40;99.90;;;;;;5026961;28;20029;-75
2023/01/26 00:59:58;;;;;;;69.65;25.63;;;-0.40;99.90;;;;;;5027450;28;20040;-76
2023/01/26 01:02:24;;;;;;;72.25;25.23;;;-0.50;99.90;;;;;;5028240;28;20074;-73
2023/01/26 01:04:49;;;;;;;71.40;24.85;;;-0.50;99.90;;;;;;5043657;28;20034;-74
2023/01/26 01:07:15;;;;;;;71.60;26.85;;;-0.50;99.90;;;;;;5026480;28;20026;-74
2023/01/26 01:09:43;;;;;;;71.70;26.60;;;-0.50;99.90;;;;;;5044841;28;20034;-73
2023/01/26 01:12:09;;;;;;;72.78;26.38;;;-0.50;99.90;;;;;;5024409;28;20055;-73
2023/01/26 01:14:36;;;;;;;80.05;26.67;;;-0.50;99.90;;;;;;5027627;28;20064;-73
2023/01/26 01:17:02;;;;;;;71.88;26.17;;;-0.50;99.90;;;;;;5023934;28;20041;-73
2023/01/26 01:19:28;;;;;;;68.30;26.17;;;-0.50;99.90;;;;;;5009889;28;20690;-76
2023/01/26 01:21:54;;;;;;;75.93;26.45;;;-0.60;99.90;;;;;;5026028;28;20025;-76
2023/01/26 01:24:23;;;;;;;68.45;24.92;;;-0.50;99.90;;;;;;5008089;28;20397;-74
2023/01/26 01:26:49;;;;;;;72.22;26.90;;;-0.50;99.90;;;;;;5026875;28;20064;-75
2023/01/26 01:29:16;;;;;;;80.95;29.02;;;-0.50;99.90;;;;;;5025128;28;20037;-75
2023/01/26 01:31:42;;;;;;;77.53;26.48;;;-0.50;99.90;;;;;;5025810;28;20025;-74
2023/01/26 01:34:08;;;;;;;75.05;26.23;;;-0.50;99.90;;;;;;5010595;28;20063;-75
2023/01/26 01:36:34;;;;;;;70.30;26.35;;;-0.40;99.90;;;;;;5026140;28;20018;-75
2023/01/26 01:39:00;;;;;;;73.35;26.50;;;-0.50;99.90;;;;;;5026332;28;20064;-75
2023/01/26 01:41:26;;;;;;;76.90;27.02;;;-0.50;99.90;;;;;;5035981;28;20029;-74
2023/01/26 01:44:11;;;;;;;77.35;27.17;;;-0.50;99.90;;;;;;5028915;28;20033;-74
2023/01/26 01:46:39;;;;;;;70.90;26.13;;;-0.40;99.90;;;;;;5041575;28;20041;-77
2023/01/26 01:49:41;;;;;;;75.78;27.85;;;-0.40;99.90;;;;;;5023618;28;20133;-76
2023/01/26 01:52:13;;;;;;;67.25;24.90;;;-0.40;99.90;;;;;;5030148;28;20047;-74
2023/01/26 01:54:47;;;;;;;74.25;25.88;;;-0.50;99.90;;;;;;5032866;28;20602;-76
2023/01/26 01:57:26;;;;;;;70.28;24.15;;;-0.50;99.90;;;;;;5030744;28;20047;-74
2023/01/26 02:00:09;;;;;;;72.10;25.33;;;-0.60;99.90;;;;;;5024024;28;20036;-75
2023/01/26 02:02:37;;;;;;;71.30;24.38;;;-0.50;99.90;;;;;;5041315;28;20031;-74
2023/01/26 02:05:26;;;;;;;74.45;25.98;;;-0.50;99.90;;;;;;5026520;28;20039;-75
2023/01/26 02:07:53;;;;;;;71.03;26.60;;;-0.50;99.90;;;;;;5026510;28;20097;-74
2023/01/26 02:10:20;;;;;;;73.88;26.15;;;-0.50;99.90;;;;;;5025415;28;20783;-74
2023/01/26 02:12:50;;;;;;;76.95;25.20;;;-0.50;99.90;;;;;;5025560;28;20026;-74
2023/01/26 02:15:16;;;;;;;78.47;25.73;;;-0.50;99.90;;;;;;5037094;28;20029;-79
2023/01/26 02:17:43;;;;;;;64.93;23.30;;;-0.50;99.90;;;;;;5027211;28;20539;-74
2023/01/26 02:20:17;;;;;;;75.38;26.17;;;-0.50;99.90;;;;;;5025947;28;20039;-74
2023/01/26 02:23:11;;;;;;;74.57;25.48;;;-0.50;99.90;;;;;;5023996;28;20087;-74
2023/01/26 02:25:53;;;;;;;67.22;23.40;;;-0.50;99.90;;;;;;5036730;28;20037;-75
2023/01/26 02:28:25;;;;;;;71.65;23.92;;;-0.50;99.90;;;;;;5019081;28;20453;-75
2023/01/26 02:30:53;;;;;;;73.90;26.02;;;-0.50;99.90;;;;;;5048035;28;20478;-74
2023/01/26 02:33:24;;;;;;;67.15;23.75;;;-0.50;99.90;;;;;;5050871;28;20068;-74
2023/01/26 02:35:51;;;;;;;66.93;24.40;;;-0.50;99.90;;;;;;5033884;28;20030;-74
2023/01/26 02:38:20;;;;;;;68.65;23.77;;;-0.50;99.90;;;;;;5002849;28;20021;-73
2023/01/26 02:41:01;;;;;;;70.93;25.85;;;-0.50;99.90;;;;;;5016487;28;20112;-75
2023/01/26 02:43:27;;;;;;;72.07;24.95;;;-0.40;99.90;;;;;;5019186;28;20446;-75
2023/01/26 02:45:53;;;;;;;63.88;24.35;;;-0.50;99.90;;;;;;5017623;28;20045;-74
2023/01/26 02:51:04;;;;;;;66.60;23.73;;;-0.50;99.90;;;;;;5018095;28;20061;-73
2023/01/26 02:53:30;;;;;;;65.10;21.88;;;-0.50;99.90;;;;;;5027093;28;20037;-72
2023/01/26 02:55:55;;;;;;;69.78;23.60;;;-0.50;99.90;;;;;;5038466;28;20034;-74
2023/01/26 02:58:21;;;;;;;62.42;22.83;;;-0.40;99.90;;;;;;5041385;28;20108;-78
2023/01/26 03:00:47;;;;;;;64.93;23.42;;;-0.40;99.90;;;;;;5021456;28;20022;-75
2023/01/26 03:03:24;;;;;;;66.03;23.92;;;-0.40;99.90;;;;;;5026203;28;20034;-75
2023/01/26 03:05:50;;;;;;;61.80;21.88;;;-0.40;99.90;;;;;;5021510;28;20508;-75
2023/01/26 03:08:17;;;;;;;60.90;22.15;;;-0.40;99.90;;;;;;5026503;28;20404;-76
2023/01/26 03:10:43;;;;;;;65.40;23.95;;;-0.40;99.90;;;;;;5025778;28;20394;-76
2023/01/26 03:13:09;;;;;;;69.53;24.60;;;-0.40;99.90;;;;;;5045027;28;20161;-75
2023/01/26 03:15:51;;;;;;;73.00;26.13;;;-0.50;99.90;;;;;;5040930;28;20055;-75
2023/01/26 03:29:25;;;;;;;69.85;24.38;;;-0.40;99.90;;;;;;5025538;28;20025;-73
2023/01/26 03:31:52;;;;;;;65.18;23.65;;;-0.40;99.90;;;;;;5023913;28;20103;-75
2023/01/26 03:34:19;;;;;;;61.30;21.88;;;-0.40;99.90;;;;;;5024917;28;20105;-75
2023/01/26 03:36:45;;;;;;;64.55;23.02;;;-0.40;99.90;;;;;;5025086;28;20044;-73
2023/01/26 03:41:06;;;;;;;69.57;23.65;;;-0.40;99.90;;;;;;5040099;28;20093;-73
2023/01/26 03:58:24;;;;;;;65.00;24.00;;;-0.40;99.90;;;;;;5022888;28;20608;-75
2023/01/26 04:00:50;;;;;;;63.67;22.25;;;-0.40;99.90;;;;;;5023851;28;20628;-76
2023/01/26 04:08:46;;;;;;;61.40;22.73;;;-0.30;99.90;;;;;;5025741;28;20029;-74
2023/01/26 04:11:12;;;;;;;64.55;22.25;;;-0.30;99.90;;;;;;5024379;28;20035;-76
2023/01/26 04:21:52;;;;;;;54.80;20.10;;;-0.40;99.90;;;;;;5029358;28;20106;-74
2023/01/26 04:24:21;;;;;;;61.90;21.20;;;-0.40;99.90;;;;;;5025506;28;20053;-73
2023/01/26 04:26:47;;;;;;;59.17;21.17;;;-0.40;99.90;;;;;;5057878;28;20068;-75
2023/01/26 04:29:14;;;;;;;57.17;20.48;;;-0.30;99.90;;;;;;5023929;28;20221;-74
2023/01/26 04:31:41;;;;;;;58.25;22.88;;;-0.40;99.90;;;;;;5026608;28;20030;-74
2023/01/26 04:34:13;;;;;;;62.33;21.90;;;-0.30;99.90;;;;;;5043719;28;20038;-74
2023/01/26 04:36:39;;;;;;;51.25;19.52;;;-0.30;99.90;;;;;;5044652;28;20497;-74
2023/01/26 04:39:05;;;;;;;56.03;19.02;;;-0.30;99.90;;;;;;5027755;28;20278;-76
2023/01/26 04:41:31;;;;;;;57.53;20.55;;;-0.30;99.90;;;;;;5060613;28;20057;-73
2023/01/26 04:43:57;;;;;;;49.72;19.08;;;-0.30;99.90;;;;;;5026781;28;20220;-75
2023/01/26 04:46:24;;;;;;;47.92;19.10;;;-0.30;99.90;;;;;;5027147;28;20095;-73
2023/01/26 04:48:49;;;;;;;50.80;18.98;;;-0.30;99.90;;;;;;5041352;28;20578;-75
2023/01/26 04:51:19;;;;;;;50.70;19.00;;;-0.30;99.90;;;;;;5020370;28;20026;-74
2023/01/26 04:53:45;;;;;;;45.10;17.75;;;-0.20;99.90;;;;;;5026737;28;20026;-75
2023/01/26 04:56:22;;;;;;;46.80;17.95;;;-0.20;99.90;;;;;;5040458;28;20022;-73
2023/01/26 04:58:48;;;;;;;49.25;19.30;;;-0.20;99.90;;;;;;5026071;28;20394;-77
2023/01/26 05:01:14;;;;;;;47.03;16.50;;;-0.20;99.90;;;;;;5028453;28;20037;-75
2023/01/26 05:03:40;;;;;;;45.60;17.95;;;-0.20;99.90;;;;;;5036719;28;20033;-77
2023/01/26 05:06:06;;;;;;;45.75;18.50;;;-0.20;99.90;;;;;;5041593;28;20528;-74
2023/01/26 05:08:31;;;;;;;48.97;18.38;;;-0.20;99.90;;;;;;5020873;28;20553;-75
2023/01/26 05:10:57;;;;;;;44.92;16.98;;;-0.20;99.90;;;;;;5028393;28;20636;-75
2023/01/26 05:13:23;;;;;;;41.75;16.58;;;-0.20;99.90;;;;;;5019888;28;20044;-74
2023/01/26 05:15:49;;;;;;;47.25;18.13;;;-0.20;99.90;;;;;;5020928;28;20065;-77
2023/01/26 05:18:15;;;;;;;41.85;16.67;;;-0.10;99.90;;;;;;5029730;28;20333;-74
2023/01/26 05:20:41;;;;;;;45.15;17.83;;;-0.10;99.90;;;;;;5021424;28;20036;-75
2023/01/26 05:23:07;;;;;;;44.78;16.70;;;-0.10;99.90;;;;;;5043738;28;20482;-75
2023/01/26 05:25:33;;;;;;;43.33;17.98;;;-0.10;99.90;;;;;;5017169;28;20052;-75
2023/01/26 05:27:59;;;;;;;47.03;17.85;;;-0.20;99.90;;;;;;5034137;28;20174;-75
2023/01/26 05:30:25;;;;;;;46.53;17.60;;;-0.10;99.90;;;;;;5039057;28;20593;-75
2023/01/26 05:32:51;;;;;;;40.10;16.60;;;-0.10;99.90;;;;;;5053335;28;20040;-75
2023/01/26 05:35:18;;;;;;;44.47;17.75;;;-0.10;99.90;;;;;;5019574;28;20064;-73
2023/01/26 05:37:44;;;;;;;44.47;16.90;;;-0.10;99.90;;;;;;5025068;28;20702;-73
2023/01/26 05:40:11;;;;;;;42.33;17.40;;;-0.10;99.90;;;;;;5027170;28;20034;-75
2023/01/26 05:42:37;;;;;;;47.30;17.40;;;-0.10;99.90;;;;;;5011059;28;20068;-75
2023/01/26 05:45:04;;;;;;;44.70;16.55;;;-0.10;99.90;;;;;;5057104;28;20083;-77
2023/01/26 05:47:30;;;;;;;43.33;16.42;;;-0.10;99.90;;;;;;5040319;28;20120;-75
2023/01/26 05:49:58;;;;;;;45.95;16.98;;;-0.10;99.90;;;;;;5026689;28;20108;-80
2023/01/26 05:52:25;;;;;;;40.25;16.10;;;-0.10;99.90;;;;;;5006882;28;20143;-78
2023/01/26 05:54:51;;;;;;;42.30;15.88;;;-0.10;99.90;;;;;;5043075;28;20033;-75
2023/01/26 05:57:17;;;;;;;43.97;17.02;;;-0.10;99.90;;;;;;5027915;28;20021;-75
2023/01/26 05:59:43;;;;;;;44.90;16.23;;;-0.10;99.90;;;;;;5024314;28;20022;-76
2023/01/26 06:02:11;;;;;;;43.85;17.40;;;-0.10;99.90;;;;;;5025205;28;20489;-75
2023/01/26 06:04:37;;;;;;;39.80;16.90;;;-0.10;99.90;;;;;;5032341;28;20025;-75
2023/01/26 06:07:03;;;;;;;42.50;17.83;;;-0.10;99.90;;;;;;5011907;28;20029;-76
2023/01/26 06:09:28;;;;;;;46.00;17.33;;;-0.10;99.90;;;;;;5022524;28;20072;-77
2023/01/26 06:11:55;;;;;;;44.05;17.25;;;-0.10;99.90;;;;;;5027930;28;20057;-79
2023/01/26 06:14:21;;;;;;;46.03;19.38;;;0.00;99.90;;;;;;5008962;28;20029;-75
2023/01/26 06:16:47;;;;;;;43.63;16.38;;;-0.10;99.90;;;;;;5021642;28;20025;-74
2023/01/26 06:19:13;;;;;;;44.20;17.13;;;0.00;99.90;;;;;;5023943;28;20030;-76
2023/01/26 06:21:39;;;;;;;45.67;18.73;;;0.00;99.90;;;;;;5022113;28;20343;-75
2023/01/26 06:24:05;;;;;;;42.92;17.15;;;0.00;99.90;;;;;;5022483;28;20026;-74
2023/01/26 06:26:31;;;;;;;40.45;16.35;;;0.00;99.90;;;;;;5034907;28;20029;-74
2023/01/26 06:29:01;;;;;;;43.17;16.88;;;0.00;99.90;;;;;;5023020;28;20028;-81
2023/01/26 06:31:28;;;;;;;42.17;15.65;;;0.00;99.90;;;;;;5019124;28;20029;-77
2023/01/26 06:33:54;;;;;;;41.67;16.70;;;0.00;99.90;;;;;;5025212;28;20037;-73
2023/01/26 06:36:20;;;;;;;39.67;16.20;;;0.00;99.90;;;;;;5042894;28;20060;-75
2023/01/26 06:38:51;;;;;;;39.65;15.45;;;0.00;99.90;;;;;;5027629;28;20033;-75
2023/01/26 06:41:17;;;;;;;;;;;0.00;99.90;;;;;;5022409;28;20406;-74
2023/01/26 06:43:45;;;;;;;41.13;15.82;;;0.00;99.90;;;;;;5024513;28;19936;-74
2023/01/26 06:46:11;;;;;;;39.30;14.43;;;0.00;99.90;;;;;;5045579;28;20033;-74
2023/01/26 06:48:39;;;;;;;41.80;15.68;;;0.00;99.90;;;;;;5027145;28;20127;-74
2023/01/26 06:51:17;;;;;;;37.08;15.32;;;0.00;99.90;;;;;;5023658;28;20091;-75
2023/01/26 06:53:56;;;;;;;40.95;15.52;;;0.00;99.90;;;;;;5026693;28;20342;-75
2023/01/26 06:56:23;;;;;;;41.00;15.50;;;0.00;99.90;;;;;;5025251;28;20116;-77
2023/01/26 06:58:50;;;;;;;43.10;16.60;;;0.10;99.90;;;;;;5060309;28;20035;-75
2023/01/26 07:01:16;;;;;;;35.63;14.70;;;0.00;99.90;;;;;;5028344;28;20318;-75
2023/01/26 07:03:42;;;;;;;39.00;15.00;;;0.10;99.90;;;;;;5024689;28;20509;-75
2023/01/26 07:06:11;;;;;;;41.63;15.43;;;0.10;99.90;;;;;;5011372;28;20041;-75
2023/01/26 07:08:37;;;;;;;40.92;16.52;;;0.10;99.90;;;;;;5054141;28;20461;-74
2023/01/26 07:11:04;;;;;;;41.15;16.08;;;0.10;99.90;;;;;;5026037;28;20034;-75
2023/01/26 07:13:29;;;;;;;38.65;14.90;;;0.10;99.90;;;;;;5031752;28;20033;-76
2023/01/26 07:16:05;;;;;;;38.50;14.48;;;0.10;99.90;;;;;;5028762;28;20037;-76
2023/01/26 07:18:31;;;;;;;38.95;16.17;;;0.10;99.90;;;;;;5024523;28;20049;-75
2023/01/26 07:21:08;;;;;;;42.65;16.33;;;0.10;99.90;;;;;;5022962;28;20044;-75
2023/01/26 07:23:34;;;;;;;40.28;15.52;;;0.10;99.90;;;;;;5026794;28;20537;-75
2023/01/26 07:26:00;;;;;;;35.72;14.20;;;0.20;99.90;;;;;;5036499;28;20072;-75
2023/01/26 07:28:29;;;;;;;37.17;15.38;;;0.10;99.90;;;;;;5021341;28;20029;-77
2023/01/26 07:31:02;;;;;;;37.85;13.80;;;0.20;99.90;;;;;;5043709;28;20030;-75
2023/01/26 07:33:28;;;;;;;42.05;15.68;;;0.20;99.90;;;;;;5028980;28;20025;-76
2023/01/26 07:35:55;;;;;;;40.05;16.58;;;0.20;99.90;;;;;;5055370;28;20029;-77
2023/01/26 07:38:21;;;;;;;39.05;15.10;;;0.20;99.90;;;;;;5028974;28;20051;-76
2023/01/26 07:40:48;;;;;;;37.42;14.50;;;0.20;99.90;;;;;;5028276;28;20033;-75
2023/01/26 07:43:14;;;;;;;39.00;16.02;;;0.20;99.90;;;;;;5053442;28;20037;-75
2023/01/26 07:45:44;;;;;;;34.45;13.85;;;0.20;99.90;;;;;;5022689;28;20029;-75
2023/01/26 07:48:12;;;;;;;41.53;15.37;;;0.30;99.90;;;;;;5045042;28;20505;-76
2023/01/26 07:50:37;;;;;;;36.38;14.55;;;0.30;99.90;;;;;;5019431;28;20032;-75
2023/01/26 07:53:04;;;;;;;41.00;15.95;;;0.30;99.90;;;;;;5019595;28;20060;-75
2023/01/26 07:55:30;;;;;;;39.92;15.80;;;0.30;99.90;;;;;;5024869;28;20087;-74
2023/01/26 07:57:56;;;;;;;37.55;15.88;;;0.30;99.90;;;;;;5026315;28;20026;-75
2023/01/26 08:00:22;;;;;;;43.42;16.55;;;0.30;99.90;;;;;;5037060;28;20605;-75
2023/01/26 08:02:51;;;;;;;37.35;15.05;;;0.30;99.90;;;;;;5026498;28;20052;-76
2023/01/26 08:05:17;;;;;;;38.72;15.35;;;0.30;99.90;;;;;;5042014;28;20033;-74
2023/01/26 08:07:42;;;;;;;36.35;14.07;;;0.40;99.90;;;;;;5026315;28;20025;-74
2023/01/26 08:10:09;;;;;;;38.28;15.30;;;0.40;99.90;;;;;;5026036;28;20033;-75
2023/01/26 08:12:37;;;;;;;36.95;14.63;;;0.40;99.90;;;;;;5022442;28;20580;-75
2023/01/26 08:15:03;;;;;;;32.47;13.23;;;0.40;99.90;;;;;;5041897;28;20033;-74
2023/01/26 08:17:29;;;;;;;32.10;13.65;;;0.40;99.90;;;;;;5028018;28;20048;-74
2023/01/26 08:19:56;;;;;;;35.05;14.40;;;0.50;99.90;;;;;;5024824;28;20575;-75
2023/01/26 08:22:21;;;;;;;38.10;15.43;;;0.50;99.90;;;;;;5026849;28;20044;-75
2023/01/26 08:24:47;;;;;;;40.63;15.80;;;0.50;99.90;;;;;;5059388;28;20034;-75
2023/01/26 08:27:14;;;;;;;36.70;14.57;;;0.50;99.90;;;;;;5029216;28;20045;-74
2023/01/26 08:29:40;;;;;;;38.95;14.65;;;0.60;99.90;;;;;;5009857;28;20068;-76
2023/01/26 08:32:07;;;;;;;34.53;13.32;;;0.50;99.90;;;;;;5027638;28;20033;-77
2023/01/26 08:34:34;;;;;;;34.30;13.43;;;0.60;99.90;;;;;;5038834;28;20052;-74
2023/01/26 08:37:00;;;;;;;32.10;13.07;;;0.50;99.90;;;;;;5061172;28;20029;-73
2023/01/26 08:39:27;;;;;;;33.08;12.95;;;0.50;99.90;;;;;;5029490;28;20040;-73
2023/01/26 08:41:52;;;;;;;30.45;12.57;;;0.50;99.90;;;;;;5026218;28;20498;-74
2023/01/26 08:44:18;;;;;;;34.17;13.60;;;0.60;99.90;;;;;;5024691;28;20029;-75
2023/01/26 08:46:44;;;;;;;31.15;12.18;;;0.60;99.90;;;;;;5025584;28;20835;-75
2023/01/26 08:49:10;;;;;;;132.15;46.17;;;0.60;99.90;;;;;;5040878;28;20049;-75
2023/01/26 08:51:36;;;;;;;36.72;15.70;;;0.60;99.90;;;;;;5044351;28;20044;-76
2023/01/26 08:54:07;;;;;;;34.72;13.35;;;0.60;99.90;;;;;;5025262;28;20064;-76
2023/01/26 08:56:33;;;;;;;;;;;0.60;99.90;;;;;;5025489;28;20029;-75
2023/01/26 08:58:58;;;;;;;35.10;12.00;;;0.60;99.90;;;;;;5025773;28;19913;-74
2023/01/26 09:01:24;;;;;;;26.65;10.52;;;0.60;99.90;;;;;;5024146;28;20104;-76
2023/01/26 09:03:51;;;;;;;27.73;12.25;;;0.60;99.90;;;;;;5025141;28;20025;-74
2023/01/26 09:06:18;;;;;;;27.48;10.75;;;0.60;99.90;;;;;;5027870;28;20025;-75
2023/01/26 09:08:43;;;;;;;22.02;9.35;;;0.70;99.90;;;;;;5026423;28;20033;-75
2023/01/26 09:11:10;;;;;;;24.38;10.05;;;0.70;99.90;;;;;;5044004;28;20033;-75
2023/01/26 09:13:37;;;;;;;31.83;12.60;;;0.70;99.90;;;;;;5027456;28;20039;-75
2023/01/26 09:16:14;;;;;;;27.80;11.85;;;0.70;99.90;;;;;;5046034;28;20033;-74
2023/01/26 09:18:39;;;;;;;24.10;10.25;;;0.70;99.90;;;;;;5029084;28;20029;-74
2023/01/26 09:21:08;;;;;;;20.98;8.90;;;0.70;99.90;;;;;;5043854;28;20048;-75
2023/01/26 09:23:34;;;;;;;21.02;8.88;;;0.70;99.90;;;;;;5028333;28;20045;-74
2023/01/26 09:26:01;;;;;;;20.42;9.25;;;0.70;99.90;;;;;;5029209;28;20037;-75
2023/01/26 09:28:27;;;;;;;22.17;9.70;;;0.60;99.90;;;;;;5028498;28;20030;-78
2023/01/26 09:30:53;;;;;;;20.85;9.02;;;0.70;99.90;;;;;;5027052;28;20034;-75
2023/01/26 09:33:21;;;;;;;21.85;9.68;;;0.70;99.90;;;;;;5041870;28;20091;-75
2023/01/26 09:35:48;;;;;;;23.45;9.82;;;0.70;99.90;;;;;;5055146;28;20060;-75
2023/01/26 09:38:14;;;;;;;23.92;10.35;;;0.80;99.90;;;;;;5023876;28;20030;-75
2023/01/26 09:40:56;;;;;;;22.98;9.95;;;0.80;99.90;;;;;;5011432;28;20038;-76
2023/01/26 09:43:40;;;;;;;23.73;9.57;;;0.90;99.90;;;;;;5026765;28;20052;-74
2023/01/26 09:46:23;;;;;;;23.67;9.23;;;0.80;99.90;;;;;;5027503;28;20045;-75
2023/01/26 09:49:15;;;;;;;23.83;8.68;;;0.90;99.90;;;;;;5043846;28;20052;-75
2023/01/26 09:51:46;;;;;;;22.83;10.27;;;1.00;99.90;;;;;;4966669;28;20039;-75
2023/01/26 09:54:25;;;;;;;24.50;9.40;;;1.00;99.90;;;;;;4950013;28;20050;-74
2023/01/26 09:56:51;;;;;;;22.58;9.05;;;1.00;99.90;;;;;;4964054;28;20043;-75
2023/01/26 09:59:24;;;;;;;22.50;9.23;;;1.00;99.90;;;;;;4947129;28;20054;-74
2023/01/26 10:02:18;;;;;;;21.80;9.25;;;1.10;99.90;;;;;;4963211;28;20092;-74
2023/01/26 10:04:48;;;;;;;24.42;10.77;;;1.20;99.90;;;;;;4933444;29;20043;-80
2023/01/26 10:07:14;;;;;;;23.08;9.15;;;1.20;99.90;;;;;;4942647;29;20035;-75
2023/01/26 10:09:44;;;;;;;27.05;9.35;;;1.20;99.90;;;;;;4929998;29;20039;-74
2023/01/26 10:12:32;;;;;;;25.27;10.00;;;1.20;99.90;;;;;;4932440;29;20042;-74
2023/01/26 10:15:04;;;;;;;21.10;9.13;;;1.20;99.90;;;;;;4930467;29;20035;-75
2023/01/26 10:17:35;;;;;;;24.45;10.32;;;1.10;99.90;;;;;;4944676;29;20031;-77
2023/01/26 10:20:26;;;;;;;24.13;10.07;;;1.20;99.90;;;;;;4947069;28;20365;-75
2023/01/26 10:22:58;;;;;;;29.33;11.02;;;1.20;99.90;;;;;;4943601;28;20587;-77
2023/01/26 10:25:36;;;;;;;25.00;10.90;;;1.20;99.90;;;;;;4947457;29;20031;-74
2023/01/26 10:28:11;;;;;;;23.05;9.93;;;1.20;99.90;;;;;;4944357;28;20494;-76
2023/01/26 10:30:40;;;;;;;25.58;10.05;;;1.20;99.90;;;;;;5022362;28;20053;-80
2023/01/26 10:33:19;;;;;;;31.08;10.13;;;1.20;99.90;;;;;;5026973;28;20104;-76
2023/01/26 10:35:46;;;;;;;25.52;10.07;;;1.30;99.90;;;;;;5009752;28;20421;-76
2023/01/26 10:38:27;;;;;;;27.95;11.27;;;1.30;99.90;;;;;;5009828;28;20025;-75
2023/01/26 10:40:54;;;;;;;25.67;10.38;;;1.30;99.90;;;;;;5008919;28;20029;-77
2023/01/26 10:43:19;;;;;;;26.83;10.20;;;1.30;99.90;;;;;;5010983;28;20352;-79
2023/01/26 10:45:46;;;;;;;29.25;11.70;;;1.40;99.90;;;;;;5017745;28;20100;-75
2023/01/26 10:48:22;;;;;;;30.63;11.27;;;1.40;99.90;;;;;;5030276;28;20136;-74
2023/01/26 10:50:49;;;;;;;30.42;11.77;;;1.50;99.90;;;;;;5027816;28;20041;-76
2023/01/26 10:53:29;;;;;;;30.02;12.35;;;1.50;99.90;;;;;;5017414;28;20084;-76
2023/01/26 10:56:05;;;;;;;32.38;11.35;;;1.50;99.90;;;;;;5011354;28;20033;-75
2023/01/26 10:58:44;;;;;;;36.45;12.68;;;1.50;99.90;;;;;;5027077;28;20497;-75
2023/01/26 11:01:17;;;;;;;33.17;11.80;;;1.50;99.90;;;;;;5008948;28;20044;-76
2023/01/26 11:04:01;;;;;;;33.47;12.43;;;1.50;99.90;;;;;;5027122;28;20477;-74
2023/01/26 11:06:28;;;;;;;33.47;13.15;;;1.60;99.90;;;;;;5026416;28;20513;-76
2023/01/26 11:09:08;;;;;;;36.67;13.48;;;1.60;99.90;;;;;;5008313;28;20624;-73
2023/01/26 11:11:34;;;;;;;38.63;12.70;;;1.60;99.90;;;;;;5009953;28;20622;-77
2023/01/26 11:14:09;;;;;;;34.08;12.70;;;1.60;99.90;;;;;;5027697;28;20284;-75
2023/01/26 11:16:35;;;;;;;41.90;13.68;;;1.60;99.90;;;;;;5028313;28;20510;-74
2023/01/26 11:19:17;;;;;;;34.05;12.07;;;1.60;99.90;;;;;;5009060;28;20473;-76
2023/01/26 11:21:49;;;;;;;34.45;12.68;;;1.70;99.90;;;;;;5009866;28;20025;-74
2023/01/26 11:24:43;;;;;;;30.98;11.75;;;1.60;99.90;;;;;;5019700;28;20025;-76
2023/01/26 11:27:30;;;;;;;41.63;14.18;;;1.70;99.90;;;;;;4988519;28;20041;-76
2023/01/26 11:30:05;;;;;;;33.22;12.02;;;1.80;99.90;;;;;;5020383;28;20033;-78
2023/01/26 11:32:55;;;;;;;37.70;12.63;;;2.10;99.90;;;;;;5008740;28;20467;-79
2023/01/26 11:35:59;;;;;;;30.20;11.80;;;2.00;99.90;;;;;;5022849;28;20038;-75
2023/01/26 11:38:37;;;;;;;32.22;12.55;;;2.00;99.90;;;;;;4979794;28;20058;-76
2023/01/26 11:41:16;;;;;;;36.47;13.55;;;1.90;99.90;;;;;;4979345;28;20114;-74
2023/01/26 11:44:34;;;;;;;35.25;13.18;;;2.00;99.90;;;;;;4974469;28;20046;-74
2023/01/26 11:47:30;;;;;;;34.50;11.50;;;2.00;99.90;;;;;;4954747;28;20066;-73
2023/01/26 11:50:21;;;;;;;34.45;11.57;;;2.00;99.90;;;;;;4999101;28;20112;-73
2023/01/26 11:52:47;;;;;;;36.67;11.50;;;2.00;99.90;;;;;;4978740;28;20034;-76
2023/01/26 11:55:35;;;;;;;33.65;12.43;;;2.00;99.90;;;;;;4997665;28;20053;-75
2023/01/26 11:58:04;;;;;;;34.78;12.10;;;2.00;99.90;;;;;;4959474;28;20026;-76
2023/01/26 12:00:40;;;;;;;31.23;11.50;;;2.00;99.90;;;;;;4976428;28;20068;-80
2023/01/26 12:03:28;;;;;;;31.45;12.18;;;2.00;99.90;;;;;;4967031;28;20046;-74
2023/01/26 12:05:59;;;;;;;33.03;11.93;;;2.10;99.90;;;;;;4965769;28;20035;-75
2023/01/26 12:08:51;;;;;;;35.95;11.70;;;2.10;99.90;;;;;;4987205;28;20106;-74
2023/01/26 12:11:32;;;;;;;37.67;13.05;;;2.10;99.90;;;;;;5023860;28;20035;-74
2023/01/26 12:14:17;;;;;;;34.60;13.30;;;2.10;99.90;;;;;;5029050;28;20036;-75
2023/01/26 12:17:04;;;;;;;28.77;10.95;;;2.10;99.90;;;;;;5011660;28;20069;-77
2023/01/26 12:20:11;;;;;;;39.13;13.05;;;2.10;99.90;;;;;;5020969;28;20088;-75
2023/01/26 12:22:43;;;;;;;33.30;11.77;;;2.10;99.90;;;;;;5003229;28;20088;-75
2023/01/26 12:25:33;;;;;;;32.42;11.43;;;2.10;99.90;;;;;;5007417;28;20029;-75
2023/01/26 12:28:09;;;;;;;31.92;11.65;;;2.00;99.90;;;;;;5014527;28;20494;-75
2023/01/26 12:31:07;;;;;;;41.53;14.38;;;2.00;99.90;;;;;;5021767;28;20099;-78
2023/01/26 12:33:34;;;;;;;44.95;13.48;;;2.10;99.90;;;;;;5021260;28;20045;-77
2023/01/26 12:36:07;;;;;;;32.22;12.02;;;2.00;99.90;;;;;;5008143;28;20085;-75
2023/01/26 12:38:46;;;;;;;44.97;14.73;;;2.00;99.90;;;;;;5037247;28;20497;-76
2023/01/26 12:41:37;;;;;;;40.50;13.93;;;2.10;99.90;;;;;;5003881;28;20033;-74
2023/01/26 12:44:16;;;;;;;38.30;12.68;;;2.10;99.90;;;;;;4978510;28;20055;-75
2023/01/26 12:46:49;;;;;;;37.95;13.75;;;2.10;99.90;;;;;;5025416;28;20029;-76
2023/01/26 12:49:23;;;;;;;27.38;10.65;;;2.10;99.90;;;;;;5005651;28;20044;-74
2023/01/26 12:51:56;;;;;;;33.90;12.35;;;2.10;99.90;;;;;;5021609;28;20108;-76
2023/01/26 12:55:03;;;;;;;43.55;13.98;;;2.10;99.90;;;;;;5005524;28;20048;-76
2023/01/26 12:57:38;;;;;;;39.33;14.25;;;2.10;99.90;;;;;;4954385;28;20027;-74
2023/01/26 13:00:17;;;;;;;34.67;13.32;;;2.20;99.90;;;;;;4954505;28;20031;-76
2023/01/26 13:02:51;;;;;;;35.63;12.48;;;2.10;99.90;;;;;;4971632;28;20037;-74
2023/01/26 13:05:53;;;;;;;38.63;13.43;;;2.10;99.90;;;;;;5004784;28;20025;-77
2023/01/26 13:08:30;;;;;;;35.15;11.13;;;2.20;99.90;;;;;;5004982;28;20037;-75
2023/01/26 13:11:05;;;;;;;32.97;11.25;;;2.20;99.90;;;;;;5028638;28;20076;-75
2023/01/26 13:13:55;;;;;;;31.45;10.43;;;2.20;99.90;;;;;;5005389;28;20044;-74
2023/01/26 13:16:34;;;;;;;24.45;9.73;;;2.20;99.90;;;;;;5026670;28;20045;-73
2023/01/26 13:19:01;;;;;;;26.33;9.45;;;2.20;99.90;;;;;;5008723;28;20040;-76
2023/01/26 13:21:40;;;;;;;29.88;10.68;;;2.20;99.90;;;;;;5037428;28;20112;-75
2023/01/26 13:24:15;;;;;;;34.05;10.32;;;2.20;99.90;;;;;;5025214;28;21118;-75
2023/01/26 13:26:52;;;;;;;22.95;9.10;;;2.70;99.90;;;;;;5024750;28;20025;-74
2023/01/26 13:29:31;;;;;;;24.98;9.27;;;2.50;99.90;;;;;;5010467;28;20044;-74
2023/01/26 13:32:22;;;;;;;24.77;8.02;;;2.40;99.90;;;;;;5027252;28;20032;-76
2023/01/26 13:34:56;;;;;;;26.92;9.35;;;2.30;99.90;;;;;;4998798;28;20404;-74
2023/01/26 13:37:39;;;;;;;330.60;147.80;;;2.30;99.90;;;;;;5025475;28;20633;-74